createdAt,value
2023-02-16T00:00:00.621Z,3.32
2023-02-16T00:05:02.195Z,3.29
2023-02-16T00:10:03.933Z,3.18
2023-02-16T00:15:18.547Z,3.23
2023-02-16T00:20:20.214Z,3.28
2023-02-16T00:25:21.776Z,3.23
2023-02-16T00:30:23.552Z,3.12
2023-02-16T00:35:25.259Z,3.21
2023-02-16T00:40:26.810Z,3.22
2023-02-16T00:45:28.753Z,3.20
2023-02-16T00:50:32.921Z,3.11
2023-02-16T00:55:35.497Z,3.13
2023-02-16T01:00:43.311Z,3.11
2023-02-16T01:05:45.054Z,3.15
2023-02-16T01:11:07.235Z,3.11
2023-02-16T01:16:13.333Z,3.06
2023-02-16T01:21:15.064Z,3.09
2023-02-16T01:26:18.945Z,3.02
2023-02-16T01:31:21.320Z,3.06
2023-02-16T01:36:26.836Z,3.06
2023-02-16T01:41:44.189Z,3.07
2023-02-16T01:47:05.823Z,3.03
2023-02-16T01:52:20.514Z,3.06
2023-02-16T01:57:27.699Z,2.87
2023-02-16T02:02:38.443Z,2.95
2023-02-16T02:07:57.879Z,2.97
2023-02-16T02:13:06.805Z,2.85
2023-02-16T02:18:09.301Z,2.87
2023-02-16T02:23:32.215Z,2.87
2023-02-16T02:28:45.425Z,2.83
2023-02-16T02:33:59.159Z,2.68
2023-02-16T02:39:13.077Z,2.77
2023-02-16T02:44:18.824Z,2.72
2023-02-16T02:49:20.461Z,2.82
2023-02-16T02:54:43.866Z,2.73
2023-02-16T03:00:16.590Z,2.72
2023-02-16T03:05:19.278Z,2.74
2023-02-16T03:10:46.785Z,2.79
2023-02-16T03:15:49.695Z,2.82
2023-02-16T03:21:10.310Z,2.74
2023-02-16T03:26:30.697Z,2.75
2023-02-16T03:31:38.552Z,2.58
2023-02-16T03:36:43.632Z,2.68
2023-02-16T03:41:51.136Z,2.58
2023-02-16T03:46:52.749Z,2.71
2023-02-16T03:51:54.309Z,2.64
2023-02-16T03:56:55.888Z,2.65
2023-02-16T04:01:57.491Z,2.56
2023-02-16T04:06:59.088Z,2.59
2023-02-16T04:12:19.056Z,2.62
2023-02-16T04:17:20.645Z,2.63
2023-02-16T04:22:22.324Z,2.51
2023-02-16T04:27:23.928Z,2.53
2023-02-16T04:32:25.504Z,2.55
2023-02-16T04:37:27.225Z,2.54
2023-02-16T04:42:28.931Z,2.50
2023-02-16T04:47:30.493Z,2.45
2023-02-16T04:52:32.381Z,2.42
2023-02-16T04:57:34.019Z,2.49
2023-02-16T05:02:35.629Z,2.48
2023-02-16T05:07:37.258Z,2.49
2023-02-16T05:12:57.233Z,2.49
2023-02-16T05:17:58.829Z,2.39
2023-02-16T05:23:00.439Z,2.44
2023-02-16T05:28:02.060Z,2.46
2023-02-16T05:33:03.750Z,2.49
2023-02-16T05:38:05.363Z,2.55
2023-02-16T05:43:07.093Z,2.38
2023-02-16T05:48:08.637Z,2.44
2023-02-16T05:53:10.192Z,2.27
2023-02-16T05:58:11.804Z,2.41
2023-02-16T06:03:13.388Z,2.37
2023-02-16T06:08:14.973Z,2.29
2023-02-16T06:13:17.086Z,2.27
2023-02-16T06:18:18.651Z,2.36
2023-02-16T06:23:20.346Z,2.40
2023-02-16T06:28:21.937Z,2.48
2023-02-16T06:33:23.511Z,2.49
2023-02-16T06:38:25.105Z,2.63
2023-02-16T06:43:27.687Z,2.56
2023-02-16T06:48:30.553Z,2.46
2023-02-16T06:53:32.124Z,2.41
2023-02-16T06:58:33.691Z,2.48
2023-02-16T07:03:35.434Z,2.58
2023-02-16T07:08:37.109Z,2.58
2023-02-16T07:13:38.761Z,2.57
2023-02-16T07:18:40.512Z,2.55
2023-02-16T07:23:42.808Z,2.61
2023-02-16T07:28:44.457Z,2.54
2023-02-16T07:33:46.184Z,2.59
2023-02-16T07:38:47.757Z,2.70
2023-02-16T07:43:49.371Z,2.44
2023-02-16T07:48:50.988Z,2.71
2023-02-16T07:53:52.618Z,2.86
2023-02-16T07:58:55.298Z,2.88
2023-02-16T08:03:57.168Z,2.91
2023-02-16T08:08:58.709Z,3.11
2023-02-16T08:14:00.564Z,3.12
2023-02-16T08:19:03.843Z,3.15
2023-02-16T08:24:07.611Z,3.24
2023-02-16T08:29:13.216Z,3.35
2023-02-16T08:34:16.800Z,3.47
2023-02-16T08:39:20.801Z,3.49
2023-02-16T08:44:24.305Z,3.49
2023-02-16T08:49:25.974Z,3.64
2023-02-16T08:54:30.703Z,3.75
2023-02-16T08:59:33.258Z,3.87
2023-02-16T09:04:36.700Z,3.97
2023-02-16T09:09:39.393Z,4.17
2023-02-16T09:14:42.056Z,4.27
2023-02-16T09:19:44.602Z,4.48
2023-02-16T09:24:46.567Z,4.62
2023-02-16T09:29:49.634Z,4.71
2023-02-16T09:34:51.289Z,4.75
2023-02-16T09:39:52.978Z,4.84
2023-02-16T09:45:09.840Z,4.86
2023-02-16T09:50:52.634Z,4.91
2023-02-16T09:56:17.630Z,4.90
2023-02-16T10:01:19.201Z,4.96
2023-02-16T10:06:31.003Z,5.01
2023-02-16T10:11:48.783Z,5.08
2023-02-16T10:17:15.239Z,5.10
2023-02-16T10:22:25.160Z,5.14
2023-02-16T10:27:33.203Z,5.20
2023-02-16T10:32:44.014Z,5.34
2023-02-16T10:38:19.976Z,5.35
2023-02-16T10:43:32.744Z,5.53
2023-02-16T10:48:34.568Z,5.54
2023-02-16T10:53:53.333Z,5.63
2023-02-16T10:58:56.611Z,5.66
2023-02-16T11:03:58.769Z,5.75
2023-02-16T11:09:02.995Z,5.82
2023-02-16T11:14:25.278Z,5.93
2023-02-16T11:19:28.834Z,6.12
2023-02-16T11:24:37.209Z,6.16
2023-02-16T11:29:38.800Z,6.30
2023-02-16T11:34:45.695Z,6.38
2023-02-16T11:39:50.957Z,6.45
2023-02-16T11:44:54.838Z,6.51
2023-02-16T11:50:05.287Z,6.61
2023-02-16T11:55:24.340Z,6.95
2023-02-16T12:00:26.586Z,6.95
2023-02-16T12:05:43.670Z,6.99
2023-02-16T12:10:54.447Z,7.05
2023-02-16T12:16:15.349Z,7.17
2023-02-16T12:21:45.426Z,7.36
2023-02-16T12:26:53.746Z,7.42
2023-02-16T12:32:01.323Z,7.49
2023-02-16T12:37:31.779Z,7.65
2023-02-16T12:42:48.327Z,7.72
2023-02-16T12:47:54.788Z,8.00
2023-02-16T12:53:12.314Z,7.93
2023-02-16T12:58:14.848Z,8.02
2023-02-16T13:03:29.060Z,8.07
2023-02-16T13:08:41.532Z,8.14
2023-02-16T13:13:45.225Z,8.22
2023-02-16T13:18:48.996Z,8.27
2023-02-16T13:24:14.738Z,8.34
2023-02-16T13:29:34.391Z,8.46
2023-02-16T13:34:54.554Z,8.52
2023-02-16T13:40:02.555Z,8.47
2023-02-16T13:45:15.971Z,8.49
2023-02-16T13:50:20.570Z,8.47
2023-02-16T13:55:32.746Z,8.44
2023-02-16T14:00:45.342Z,8.43
2023-02-16T14:05:47.996Z,8.40
2023-02-16T14:10:53.143Z,8.43
2023-02-16T14:15:56.782Z,8.35
2023-02-16T14:21:06.593Z,8.33
2023-02-16T14:26:10.196Z,8.29
2023-02-16T14:31:18.712Z,8.28
2023-02-16T14:36:24.184Z,8.26
2023-02-16T14:41:33.067Z,8.23
2023-02-16T14:46:56.043Z,8.23
2023-02-16T14:52:00.274Z,8.27
2023-02-16T14:57:18.847Z,8.26
2023-02-16T15:02:28.184Z,8.18
2023-02-16T15:07:30.504Z,8.17
2023-02-16T15:12:33.364Z,8.04
2023-02-16T15:17:47.932Z,7.97
2023-02-16T15:22:57.930Z,7.86
2023-02-16T15:28:25.922Z,7.85
2023-02-16T15:33:36.239Z,7.75
2023-02-16T15:38:40.364Z,7.69
2023-02-16T15:43:50.060Z,7.57
2023-02-16T15:48:51.693Z,7.55
2023-02-16T15:53:58.875Z,7.48
2023-02-16T15:59:02.726Z,7.37
2023-02-16T16:04:22.247Z,7.32
2023-02-16T16:09:33.859Z,7.09
2023-02-16T16:14:43.252Z,7.09
2023-02-16T16:19:44.898Z,6.93
2023-02-16T16:24:48.527Z,6.92
2023-02-16T16:29:50.116Z,6.89
2023-02-16T16:34:51.723Z,6.64
2023-02-16T16:40:00.966Z,6.65
2023-02-16T16:45:25.789Z,6.63
2023-02-16T16:50:28.789Z,6.40
2023-02-16T16:55:33.860Z,6.35
2023-02-16T17:00:38.312Z,6.42
2023-02-16T17:05:40.030Z,6.42
2023-02-16T17:10:41.971Z,6.46
2023-02-16T17:16:02.719Z,6.39
2023-02-16T17:21:05.262Z,6.27
2023-02-16T17:26:07.203Z,6.25
2023-02-16T17:31:10.230Z,6.27
2023-02-16T17:36:15.204Z,6.33
2023-02-16T17:41:21.412Z,6.25
2023-02-16T17:46:23.922Z,6.23
2023-02-16T17:51:26.273Z,6.21
2023-02-16T17:56:28.045Z,6.24
2023-02-16T18:01:29.667Z,6.28
2023-02-16T18:06:31.303Z,6.17
2023-02-16T18:11:32.928Z,6.15
2023-02-16T18:16:34.516Z,6.08
2023-02-16T18:21:36.086Z,6.03
2023-02-16T18:26:37.750Z,6.06
2023-02-16T18:31:40.549Z,5.97
2023-02-16T18:36:42.263Z,5.95
2023-02-16T18:41:43.842Z,5.93
2023-02-16T18:46:45.411Z,5.99
2023-02-16T18:51:47.035Z,5.83
2023-02-16T18:56:48.598Z,5.95
2023-02-16T19:01:57.503Z,5.91
2023-02-16T19:06:59.082Z,5.84
2023-02-16T19:12:00.702Z,5.78
2023-02-16T19:17:02.551Z,5.73
2023-02-16T19:22:04.379Z,5.76
2023-02-16T19:27:05.981Z,5.72
2023-02-16T19:32:07.714Z,5.78
2023-02-16T19:37:09.284Z,5.84
2023-02-16T19:42:10.929Z,5.88
2023-02-16T19:47:12.535Z,5.92
2023-02-16T19:52:14.106Z,5.91
2023-02-16T19:57:15.712Z,5.93
2023-02-16T20:02:17.572Z,5.98
2023-02-16T20:07:19.227Z,5.96
2023-02-16T20:12:21.048Z,6.03
2023-02-16T20:17:22.633Z,6.05
2023-02-16T20:22:24.169Z,6.05
2023-02-16T20:27:27.849Z,6.08
2023-02-16T20:32:29.856Z,5.97
2023-02-16T20:37:31.487Z,6.07
2023-02-16T20:42:33.379Z,6.08
2023-02-16T20:47:34.953Z,6.06
2023-02-16T20:52:36.697Z,6.09
2023-02-16T20:57:39.116Z,5.89
2023-02-16T21:02:40.908Z,6.05
2023-02-16T21:07:42.805Z,6.10
2023-02-16T21:12:44.835Z,6.16
2023-02-16T21:17:46.452Z,6.04
2023-02-16T21:22:48.063Z,6.04
2023-02-16T21:27:49.775Z,6.24
2023-02-16T21:32:51.620Z,6.29
2023-02-16T21:37:53.236Z,6.37
2023-02-16T21:42:54.804Z,6.32
2023-02-16T21:48:14.786Z,6.36
2023-02-16T21:53:16.400Z,6.37
2023-02-16T21:58:18.098Z,6.30
2023-02-16T22:03:20.551Z,6.31
2023-02-16T22:08:26.382Z,6.48
2023-02-16T22:13:27.962Z,6.46
2023-02-16T22:18:29.566Z,6.67
2023-02-16T22:23:31.476Z,6.71
2023-02-16T22:28:33.366Z,6.70
2023-02-16T22:33:35.604Z,6.77
2023-02-16T22:38:37.227Z,6.71
2023-02-16T22:43:39.308Z,6.82
2023-02-16T22:48:41.768Z,6.78
2023-02-16T22:53:43.605Z,6.85
2023-02-16T22:58:45.913Z,6.86
2023-02-16T23:03:49.344Z,6.85
2023-02-16T23:08:53.322Z,6.89
2023-02-16T23:13:55.249Z,6.83
2023-02-16T23:18:57.842Z,6.99
2023-02-16T23:24:00.199Z,7.06
2023-02-16T23:29:02.286Z,7.06
2023-02-16T23:34:04.966Z,6.89
2023-02-16T23:39:12.275Z,6.90
2023-02-16T23:44:14.588Z,6.87
2023-02-16T23:49:16.133Z,6.98
2023-02-16T23:54:17.692Z,7.02
2023-02-16T23:59:19.286Z,7.08
